Time;durP1;ratioP1;P1;durP2;ratioP2;P2;SDS_P1;SDS_P2;PMS_P1;PMS_P2;Temp;Humidity;BMP_temperature;BMP_pressure;BME280_temperature;BME280_humidity;BME280_pressure;Samples;Min_cycle;Max_cycle;Signal;HPM_P1;HPM_P2
2021/06/29 00:00:57;;;;;;;75.65;70.13;;;;;;;;;;5034560;28;20056;-59
2021/06/29 00:03:25;;;;;;;73.93;68.78;;;;;;;;;;5034432;28;20038;-58
2021/06/29 00:05:52;;;;;;;87.00;81.60;;;;;;;;;;5034352;28;20021;-58
2021/06/29 00:08:19;;;;;;;67.53;62.42;;;;;;;;;;5034414;28;20033;-59
2021/06/29 00:10:47;;;;;;;62.15;56.97;;;;;;;;;;5034268;28;20546;-60
2021/06/29 00:13:14;;;;;;;75.82;70.43;;;;;;;;;;5034300;28;20025;-57
2021/06/29 00:15:42;;;;;;;76.60;71.30;;;;;;;;;;5034191;28;20037;-56
2021/06/29 00:18:09;;;;;;;68.25;63.53;;;;;;;;;;5034204;28;20434;-58
2021/06/29 00:20:36;;;;;;;66.70;61.85;;;;;;;;;;5034139;28;20449;-58
2021/06/29 00:23:04;;;;;;;80.68;74.90;;;;;;;;;;5034090;28;20030;-59
2021/06/29 00:25:31;;;;;;;62.67;57.72;;;;;;;;;;5034281;28;20093;-59
2021/06/29 00:27:58;;;;;;;74.72;69.40;;;;;;;;;;5033885;28;20033;-58
2021/06/29 00:30:26;;;;;;;82.70;77.05;;;;;;;;;;5034389;28;20466;-59
2021/06/29 00:32:53;;;;;;;83.47;77.72;;;;;;;;;;5033974;28;20056;-60
2021/06/29 00:35:20;;;;;;;77.05;71.95;;;;;;;;;;5034107;28;20030;-60
2021/06/29 00:37:48;;;;;;;80.00;74.40;;;;;;;;;;5033932;28;20049;-60
2021/06/29 00:40:16;;;;;;;75.80;70.30;;;;;;;;;;5033789;28;20505;-60
2021/06/29 00:42:43;;;;;;;70.97;65.28;;;;;;;;;;5033563;28;20035;-60
2021/06/29 00:45:11;;;;;;;73.47;68.13;;;;;;;;;;5033901;28;20575;-60
2021/06/29 00:47:38;;;;;;;73.38;68.10;;;;;;;;;;5033758;28;20033;-59
2021/06/29 00:50:07;;;;;;;69.95;64.55;;;;;;;;;;5033596;28;20022;-59
2021/06/29 00:52:34;;;;;;;76.28;70.68;;;;;;;;;;5033695;28;20087;-59
2021/06/29 00:55:01;;;;;;;63.08;57.88;;;;;;;;;;5033228;28;20098;-62
2021/06/29 00:57:29;;;;;;;77.82;72.25;;;;;;;;;;5033507;28;20021;-62
2021/06/29 00:59:56;;;;;;;63.42;57.97;;;;;;;;;;5033253;28;20044;-62
2021/06/29 01:02:23;;;;;;;62.47;57.28;;;;;;;;;;5033343;28;20501;-60
2021/06/29 01:04:50;;;;;;;58.38;53.22;;;;;;;;;;5033405;28;20108;-58
2021/06/29 01:07:17;;;;;;;56.88;51.70;;;;;;;;;;5033350;28;20467;-61
2021/06/29 01:09:44;;;;;;;59.85;54.75;;;;;;;;;;5033307;28;20018;-59
2021/06/29 01:12:12;;;;;;;58.30;53.42;;;;;;;;;;5033418;28;20037;-59
2021/06/29 01:14:39;;;;;;;58.00;52.83;;;;;;;;;;5032976;28;20097;-58
2021/06/29 01:17:07;;;;;;;57.70;52.53;;;;;;;;;;5031669;28;20482;-56
2021/06/29 01:19:49;;;;;;;55.85;51.25;;;;;;;;;;5033255;28;20478;-55
2021/06/29 01:22:17;;;;;;;59.08;53.85;;;;;;;;;;5032801;28;20029;-57
2021/06/29 01:24:47;;;;;;;57.90;52.72;;;;;;;;;;5032400;28;20041;-57
2021/06/29 01:27:37;;;;;;;78.60;72.93;;;;;;;;;;5032697;28;20030;-56
2021/06/29 01:32:32;;;;;;;56.90;52.50;;;;;;;;;;5032775;28;20486;-56
2021/06/29 01:35:04;;;;;;;57.38;53.10;;;;;;;;;;5032937;28;20025;-53
2021/06/29 01:37:31;;;;;;;63.45;58.65;;;;;;;;;;5032899;28;20029;-55
2021/06/29 01:40:24;;;;;;;61.47;56.78;;;;;;;;;;5031965;28;20040;-61
2021/06/29 01:42:58;;;;;;;59.53;54.83;;;;;;;;;;5032162;28;20033;-58
2021/06/29 01:45:28;;;;;;;59.45;54.95;;;;;;;;;;5032845;28;20494;-58
2021/06/29 01:47:57;;;;;;;61.35;56.53;;;;;;;;;;5033142;28;20021;-57
2021/06/29 01:50:24;;;;;;;60.90;56.40;;;;;;;;;;5032751;28;20124;-58
2021/06/29 01:52:59;;;;;;;62.72;58.13;;;;;;;;;;5032956;28;20403;-56
2021/06/29 01:55:27;;;;;;;60.05;55.60;;;;;;;;;;5032662;28;20095;-57
2021/06/29 01:57:54;;;;;;;59.63;55.25;;;;;;;;;;5032809;28;20017;-59
2021/06/29 02:00:22;;;;;;;64.30;59.45;;;;;;;;;;5032792;28;20036;-58
2021/06/29 02:02:49;;;;;;;63.05;58.05;;;;;;;;;;5032770;28;20026;-60
2021/06/29 02:05:16;;;;;;;61.22;56.42;;;;;;;;;;5032798;28;20032;-59
2021/06/29 02:07:44;;;;;;;59.60;55.03;;;;;;;;;;5032650;28;20021;-60
2021/06/29 02:10:12;;;;;;;58.88;54.33;;;;;;;;;;5032496;28;20107;-59
2021/06/29 02:12:39;;;;;;;61.00;56.20;;;;;;;;;;5032617;28;20022;-59
2021/06/29 02:15:06;;;;;;;58.55;53.95;;;;;;;;;;5032521;28;20121;-59
2021/06/29 02:17:34;;;;;;;56.45;51.75;;;;;;;;;;5032743;28;20044;-59
2021/06/29 02:20:01;;;;;;;59.08;54.40;;;;;;;;;;5033039;28;20360;-60
2021/06/29 02:22:28;;;;;;;60.55;55.92;;;;;;;;;;5032773;28;20036;-58
2021/06/29 02:24:55;;;;;;;59.63;54.35;;;;;;;;;;5032685;28;20097;-58
2021/06/29 02:27:22;;;;;;;56.67;51.92;;;;;;;;;;5032434;28;20041;-58
2021/06/29 02:29:49;;;;;;;57.70;52.85;;;;;;;;;;5032348;28;20508;-59
2021/06/29 02:32:17;;;;;;;60.75;55.95;;;;;;;;;;5032491;28;20021;-58
2021/06/29 02:34:44;;;;;;;56.55;52.05;;;;;;;;;;5032307;28;20501;-58
2021/06/29 02:37:12;;;;;;;53.88;49.40;;;;;;;;;;5032560;28;20033;-57
2021/06/29 02:39:39;;;;;;;54.70;50.15;;;;;;;;;;5032384;28;20029;-58
2021/06/29 02:42:06;;;;;;;53.30;48.70;;;;;;;;;;5032583;28;20079;-58
2021/06/29 02:44:34;;;;;;;61.72;56.83;;;;;;;;;;5031083;28;20025;-59
2021/06/29 02:47:02;;;;;;;57.20;52.55;;;;;;;;;;5032227;28;20032;-58
2021/06/29 02:49:29;;;;;;;55.78;51.13;;;;;;;;;;5032276;28;20459;-58
2021/06/29 02:51:56;;;;;;;64.25;59.22;;;;;;;;;;5035860;28;20108;-58
2021/06/29 02:54:23;;;;;;;55.05;50.35;;;;;;;;;;5035756;28;20049;-58
2021/06/29 02:56:50;;;;;;;56.65;51.72;;;;;;;;;;5036198;28;20091;-59
2021/06/29 02:59:18;;;;;;;58.13;53.17;;;;;;;;;;5035972;28;20057;-58
2021/06/29 03:01:45;;;;;;;57.13;52.53;;;;;;;;;;5036111;28;20087;-58
2021/06/29 03:04:12;;;;;;;58.45;53.63;;;;;;;;;;5035882;28;20041;-58
2021/06/29 03:06:40;;;;;;;67.03;61.70;;;;;;;;;;5035671;28;20025;-57
2021/06/29 03:09:08;;;;;;;66.70;61.25;;;;;;;;;;5035805;28;20498;-57
2021/06/29 03:11:35;;;;;;;64.70;59.30;;;;;;;;;;5035663;28;20018;-57
2021/06/29 03:14:03;;;;;;;64.65;59.58;;;;;;;;;;5035648;28;20396;-57
2021/06/29 03:16:30;;;;;;;68.70;63.30;;;;;;;;;;5035612;28;20104;-59
2021/06/29 03:18:58;;;;;;;74.97;69.30;;;;;;;;;;5035461;28;20093;-58
2021/06/29 03:21:26;;;;;;;74.88;69.38;;;;;;;;;;5035388;28;20028;-56
2021/06/29 03:23:53;;;;;;;71.85;66.45;;;;;;;;;;5035571;28;20018;-57
2021/06/29 03:26:20;;;;;;;73.13;67.93;;;;;;;;;;5035715;28;20025;-58
2021/06/29 03:28:48;;;;;;;75.97;70.40;;;;;;;;;;5035409;28;20026;-58
2021/06/29 03:31:15;;;;;;;73.97;68.30;;;;;;;;;;5035399;28;20022;-63
2021/06/29 03:33:42;;;;;;;70.63;65.30;;;;;;;;;;5035354;28;20032;-63
2021/06/29 03:36:10;;;;;;;65.40;60.00;;;;;;;;;;5035292;28;20036;-63
2021/06/29 03:38:37;;;;;;;65.95;60.90;;;;;;;;;;5035091;28;20033;-57
2021/06/29 03:41:05;;;;;;;60.85;55.95;;;;;;;;;;5035165;28;20105;-58
2021/06/29 03:43:37;;;;;;;62.60;57.40;;;;;;;;;;5034943;28;20040;-58
2021/06/29 03:46:04;;;;;;;64.25;59.20;;;;;;;;;;5035156;28;20045;-58
2021/06/29 03:48:31;;;;;;;63.00;57.90;;;;;;;;;;5034889;28;20490;-58
2021/06/29 03:50:58;;;;;;;74.15;68.70;;;;;;;;;;5034871;28;20069;-62
2021/06/29 03:53:25;;;;;;;75.32;69.93;;;;;;;;;;5034830;28;20032;-58
2021/06/29 03:55:52;;;;;;;64.68;59.83;;;;;;;;;;5034478;28;20041;-60
2021/06/29 03:58:20;;;;;;;72.00;66.95;;;;;;;;;;5034824;28;20427;-58
2021/06/29 04:00:47;;;;;;;70.40;65.55;;;;;;;;;;5034643;28;20437;-58
2021/06/29 04:03:14;;;;;;;72.78;67.63;;;;;;;;;;5033611;28;20418;-59
2021/06/29 04:05:41;;;;;;;74.45;69.38;;;;;;;;;;5034824;28;20367;-59
2021/06/29 04:08:08;;;;;;;64.88;60.00;;;;;;;;;;5034499;28;20382;-59
2021/06/29 04:10:35;;;;;;;65.55;60.53;;;;;;;;;;5034367;28;20021;-60
2021/06/29 04:13:03;;;;;;;63.22;58.50;;;;;;;;;;5034504;28;20025;-61
2021/06/29 04:15:30;;;;;;;64.43;59.47;;;;;;;;;;5034352;28;20022;-58
2021/06/29 04:17:57;;;;;;;82.18;76.95;;;;;;;;;;5034190;28;20036;-59
2021/06/29 04:20:24;;;;;;;81.53;76.18;;;;;;;;;;5034381;28;20067;-60
2021/06/29 04:22:51;;;;;;;77.30;72.05;;;;;;;;;;5034282;28;20030;-59
2021/06/29 04:25:18;;;;;;;75.45;70.25;;;;;;;;;;5034229;28;20021;-61
2021/06/29 04:27:46;;;;;;;73.47;68.18;;;;;;;;;;5034114;28;20080;-65
2021/06/29 04:30:14;;;;;;;71.68;66.47;;;;;;;;;;5034380;28;20052;-61
2021/06/29 04:32:41;;;;;;;74.50;69.05;;;;;;;;;;5034023;28;20509;-61
2021/06/29 04:35:08;;;;;;;72.15;66.57;;;;;;;;;;5033978;28;20052;-58
2021/06/29 04:37:35;;;;;;;73.18;67.50;;;;;;;;;;5033934;28;20030;-59
2021/06/29 04:40:02;;;;;;;64.38;58.78;;;;;;;;;;5033943;28;20080;-59
2021/06/29 04:42:30;;;;;;;64.40;59.17;;;;;;;;;;5033747;28;20032;-58
2021/06/29 04:44:57;;;;;;;65.60;60.35;;;;;;;;;;5033846;28;20482;-59
2021/06/29 04:47:24;;;;;;;67.40;61.90;;;;;;;;;;5033744;28;20048;-58
2021/06/29 04:49:55;;;;;;;64.07;59.08;;;;;;;;;;5033604;28;20032;-58
2021/06/29 04:52:22;;;;;;;71.35;66.20;;;;;;;;;;5033501;28;20033;-58
2021/06/29 04:54:50;;;;;;;67.95;62.85;;;;;;;;;;5033222;28;20049;-58
2021/06/29 04:57:17;;;;;;;66.13;61.17;;;;;;;;;;5033677;28;20052;-58
2021/06/29 04:59:44;;;;;;;70.85;65.43;;;;;;;;;;5033562;28;20049;-58
2021/06/29 05:02:12;;;;;;;59.17;53.95;;;;;;;;;;5033296;28;20031;-61
2021/06/29 05:04:39;;;;;;;60.25;55.00;;;;;;;;;;5033546;28;20080;-61
2021/06/29 05:07:06;;;;;;;70.35;65.15;;;;;;;;;;5033319;28;20030;-59
2021/06/29 05:09:33;;;;;;;73.80;68.07;;;;;;;;;;5033417;28;20018;-61
2021/06/29 05:12:00;;;;;;;64.57;59.55;;;;;;;;;;5033602;28;20026;-58
2021/06/29 05:14:28;;;;;;;65.07;59.75;;;;;;;;;;5033127;28;20036;-58
2021/06/29 05:16:55;;;;;;;63.08;58.10;;;;;;;;;;5033229;28;20030;-59
2021/06/29 05:19:25;;;;;;;65.25;59.75;;;;;;;;;;5033326;28;20163;-59
2021/06/29 05:21:52;;;;;;;79.68;74.07;;;;;;;;;;5033219;28;20018;-60
2021/06/29 05:24:19;;;;;;;75.88;70.38;;;;;;;;;;5033188;28;20017;-58
2021/06/29 05:26:46;;;;;;;79.00;73.40;;;;;;;;;;5033076;28;20053;-60
2021/06/29 05:29:13;;;;;;;70.18;65.20;;;;;;;;;;5031711;28;20032;-60
2021/06/29 05:31:41;;;;;;;81.05;75.35;;;;;;;;;;5033060;28;20093;-58
2021/06/29 05:34:08;;;;;;;65.45;60.55;;;;;;;;;;5032880;28;20022;-59
2021/06/29 05:36:35;;;;;;;74.53;69.30;;;;;;;;;;5032980;28;20473;-58
2021/06/29 05:39:02;;;;;;;63.60;58.80;;;;;;;;;;5033003;28;20390;-61
2021/06/29 05:41:29;;;;;;;72.10;66.85;;;;;;;;;;5032776;28;20018;-60
2021/06/29 05:44:01;;;;;;;67.38;61.97;;;;;;;;;;5032752;28;20033;-58
2021/06/29 05:46:28;;;;;;;73.72;68.65;;;;;;;;;;5031452;28;20029;-61
2021/06/29 05:48:56;;;;;;;68.38;63.38;;;;;;;;;;5032642;28;20395;-59
2021/06/29 05:51:23;;;;;;;76.35;71.40;;;;;;;;;;5032733;28;20394;-60
2021/06/29 05:53:50;;;;;;;62.50;57.60;;;;;;;;;;5032439;28;20048;-59
2021/06/29 05:56:17;;;;;;;66.10;60.88;;;;;;;;;;5032744;28;20075;-59
2021/06/29 05:58:44;;;;;;;74.18;69.15;;;;;;;;;;5032716;28;20022;-59
2021/06/29 06:01:11;;;;;;;66.15;61.30;;;;;;;;;;5032679;28;20045;-58
2021/06/29 06:03:38;;;;;;;63.15;58.25;;;;;;;;;;5032556;28;20037;-58
2021/06/29 06:06:06;;;;;;;59.95;55.08;;;;;;;;;;5032451;28;20391;-56
2021/06/29 06:08:33;;;;;;;61.72;57.03;;;;;;;;;;5032468;28;20390;-56
2021/06/29 06:11:00;;;;;;;60.55;55.85;;;;;;;;;;5032653;28;20028;-57
2021/06/29 06:13:27;;;;;;;58.95;54.45;;;;;;;;;;5032506;28;20025;-56
2021/06/29 06:15:56;;;;;;;61.60;56.85;;;;;;;;;;5032490;28;20031;-55
2021/06/29 06:18:23;;;;;;;63.97;59.45;;;;;;;;;;5032365;28;20518;-58
2021/06/29 06:20:51;;;;;;;62.30;57.72;;;;;;;;;;5032543;28;20105;-61
2021/06/29 06:23:18;;;;;;;62.65;57.85;;;;;;;;;;5032499;28;20105;-59
2021/06/29 06:25:45;;;;;;;61.75;57.15;;;;;;;;;;5034272;28;20025;-56
2021/06/29 06:28:13;;;;;;;64.50;59.50;;;;;;;;;;5036467;28;20025;-54
2021/06/29 06:30:41;;;;;;;61.45;56.85;;;;;;;;;;5036043;28;20414;-59
2021/06/29 06:33:09;;;;;;;61.50;56.95;;;;;;;;;;5035898;28;20029;-61
2021/06/29 06:35:36;;;;;;;69.85;65.05;;;;;;;;;;5036126;28;20540;-56
2021/06/29 06:38:03;;;;;;;67.97;63.35;;;;;;;;;;5036208;28;20482;-53
2021/06/29 06:40:31;;;;;;;78.57;73.68;;;;;;;;;;5036139;28;20025;-54
2021/06/29 06:42:58;;;;;;;65.22;60.67;;;;;;;;;;5034570;28;20112;-55
2021/06/29 06:45:25;;;;;;;72.22;67.32;;;;;;;;;;5036056;28;20061;-58
2021/06/29 06:47:53;;;;;;;57.13;52.78;;;;;;;;;;5035876;28;20037;-56
2021/06/29 06:50:21;;;;;;;59.75;55.13;;;;;;;;;;5035917;28;20025;-57
2021/06/29 06:52:48;;;;;;;70.63;65.63;;;;;;;;;;5034641;28;20033;-56
2021/06/29 06:55:19;;;;;;;59.97;55.47;;;;;;;;;;5035538;28;20056;-59
2021/06/29 06:57:46;;;;;;;61.33;56.88;;;;;;;;;;5035750;28;20072;-60
2021/06/29 07:00:14;;;;;;;71.85;66.57;;;;;;;;;;5035801;28;20029;-60
2021/06/29 07:02:41;;;;;;;62.42;57.55;;;;;;;;;;5035368;28;20422;-60
2021/06/29 07:05:08;;;;;;;63.50;58.88;;;;;;;;;;5035274;28;20386;-58
2021/06/29 07:07:36;;;;;;;59.95;55.45;;;;;;;;;;5035294;28;20013;-59
2021/06/29 07:10:04;;;;;;;57.10;52.80;;;;;;;;;;5035285;28;20022;-59
2021/06/29 07:12:31;;;;;;;63.97;59.55;;;;;;;;;;5035206;28;20025;-59
2021/06/29 07:14:58;;;;;;;55.75;51.47;;;;;;;;;;5034978;28;20116;-60
2021/06/29 07:17:25;;;;;;;57.97;53.67;;;;;;;;;;5035016;28;20463;-59
2021/06/29 07:19:53;;;;;;;61.47;56.95;;;;;;;;;;5034973;28;20080;-59
2021/06/29 07:22:20;;;;;;;62.20;57.80;;;;;;;;;;5034985;28;20088;-60
2021/06/29 07:24:47;;;;;;;63.42;58.47;;;;;;;;;;5035103;28;20021;-60
2021/06/29 07:27:14;;;;;;;62.80;58.10;;;;;;;;;;5035105;28;20028;-60
2021/06/29 07:29:42;;;;;;;61.38;56.85;;;;;;;;;;5035213;28;20108;-60
2021/06/29 07:32:09;;;;;;;60.92;56.42;;;;;;;;;;5035343;28;20030;-60
2021/06/29 07:34:36;;;;;;;58.45;54.03;;;;;;;;;;5034995;28;20029;-59
2021/06/29 07:37:04;;;;;;;58.92;54.63;;;;;;;;;;5033694;28;20079;-59
2021/06/29 07:39:31;;;;;;;59.40;55.05;;;;;;;;;;5035133;28;20030;-57
2021/06/29 07:41:58;;;;;;;56.83;52.53;;;;;;;;;;5034905;28;20029;-59
2021/06/29 07:44:25;;;;;;;57.35;52.95;;;;;;;;;;5034743;28;20017;-59
2021/06/29 07:46:52;;;;;;;58.33;53.83;;;;;;;;;;5034819;28;20497;-59
2021/06/29 07:49:19;;;;;;;53.00;48.83;;;;;;;;;;5034524;28;20095;-60
2021/06/29 07:51:46;;;;;;;53.80;49.38;;;;;;;;;;5034518;28;20474;-60
2021/06/29 07:54:14;;;;;;;52.10;47.60;;;;;;;;;;5034402;28;20038;-60
2021/06/29 07:56:41;;;;;;;50.85;46.75;;;;;;;;;;5034430;28;20113;-59
2021/06/29 07:59:08;;;;;;;51.10;46.97;;;;;;;;;;5034635;28;20494;-59
2021/06/29 08:01:35;;;;;;;52.75;48.28;;;;;;;;;;5034566;28;20014;-60
2021/06/29 08:04:02;;;;;;;55.00;50.38;;;;;;;;;;5034474;28;20029;-60
2021/06/29 08:06:29;;;;;;;53.35;49.05;;;;;;;;;;5034606;28;20026;-59
2021/06/29 08:08:56;;;;;;;55.85;51.35;;;;;;;;;;5034507;28;20491;-59
2021/06/29 08:11:23;;;;;;;54.75;50.20;;;;;;;;;;5034321;28;20017;-59
2021/06/29 08:13:50;;;;;;;57.58;52.53;;;;;;;;;;5034266;28;20031;-59
2021/06/29 08:16:18;;;;;;;52.53;48.05;;;;;;;;;;5034130;28;20364;-59
2021/06/29 08:18:45;;;;;;;54.88;50.25;;;;;;;;;;5034127;28;20021;-56
2021/06/29 08:21:12;;;;;;;53.38;48.35;;;;;;;;;;5034214;28;20446;-58
2021/06/29 08:23:39;;;;;;;60.47;55.15;;;;;;;;;;5033801;28;20033;-57
2021/06/29 08:26:07;;;;;;;53.88;48.97;;;;;;;;;;5034022;28;20104;-58
2021/06/29 08:28:36;;;;;;;55.08;50.80;;;;;;;;;;5033941;28;20018;-59
2021/06/29 08:31:04;;;;;;;56.13;51.45;;;;;;;;;;5033854;28;20029;-59
2021/06/29 08:33:31;;;;;;;60.40;55.38;;;;;;;;;;5033817;28;20060;-59
2021/06/29 08:35:58;;;;;;;58.25;53.75;;;;;;;;;;5034143;28;20045;-59
2021/06/29 08:38:26;;;;;;;61.00;56.45;;;;;;;;;;5033571;28;20509;-58
2021/06/29 08:40:54;;;;;;;56.25;51.95;;;;;;;;;;5034140;28;20030;-58
2021/06/29 08:43:21;;;;;;;53.72;49.17;;;;;;;;;;5033835;28;20037;-59
2021/06/29 08:45:49;;;;;;;54.20;50.00;;;;;;;;;;5033757;28;20045;-59
2021/06/29 08:48:18;;;;;;;52.35;48.00;;;;;;;;;;5033107;28;20021;-59
2021/06/29 08:50:45;;;;;;;53.75;49.35;;;;;;;;;;5032295;28;20498;-59
2021/06/29 08:53:13;;;;;;;54.15;49.75;;;;;;;;;;5033709;28;20113;-59
2021/06/29 08:55:45;;;;;;;59.28;54.67;;;;;;;;;;5033017;28;20081;-60
2021/06/29 08:58:16;;;;;;;64.93;60.00;;;;;;;;;;5033205;28;20026;-59
2021/06/29 09:00:43;;;;;;;62.17;57.35;;;;;;;;;;5033512;28;20065;-60
2021/06/29 09:03:10;;;;;;;57.45;53.05;;;;;;;;;;5033346;28;20041;-58
2021/06/29 09:05:38;;;;;;;62.25;57.28;;;;;;;;;;5033514;28;20053;-60
2021/06/29 09:08:13;;;;;;;61.45;56.60;;;;;;;;;;5033283;28;20033;-60
2021/06/29 09:10:41;;;;;;;61.50;56.63;;;;;;;;;;5033197;28;20029;-59
2021/06/29 09:13:10;;;;;;;63.72;58.75;;;;;;;;;;5033375;28;20025;-59
2021/06/29 09:15:44;;;;;;;58.53;53.33;;;;;;;;;;5033117;28;20033;-59
2021/06/29 09:18:12;;;;;;;58.35;53.47;;;;;;;;;;5031721;28;20032;-59
2021/06/29 09:20:44;;;;;;;53.65;48.58;;;;;;;;;;5033064;28;20041;-60
2021/06/29 09:23:14;;;;;;;53.50;48.47;;;;;;;;;;5033001;28;20030;-61
2021/06/29 09:25:46;;;;;;;55.60;50.40;;;;;;;;;;5033098;28;20029;-59
2021/06/29 09:28:15;;;;;;;63.47;57.80;;;;;;;;;;5033010;28;20022;-60
2021/06/29 09:30:46;;;;;;;57.55;52.45;;;;;;;;;;5032974;28;20017;-60
2021/06/29 09:33:17;;;;;;;56.25;51.65;;;;;;;;;;5032949;28;20036;-60
2021/06/29 09:35:46;;;;;;;57.22;52.20;;;;;;;;;;5032791;28;20040;-59
2021/06/29 09:38:20;;;;;;;60.80;55.22;;;;;;;;;;5032776;28;20025;-61
2021/06/29 09:40:47;;;;;;;62.15;57.08;;;;;;;;;;5032760;28;20395;-60
2021/06/29 09:43:18;;;;;;;61.30;55.90;;;;;;;;;;5032755;28;20021;-60
2021/06/29 09:45:51;;;;;;;61.65;55.97;;;;;;;;;;5033001;28;20013;-60
2021/06/29 09:48:19;;;;;;;64.43;58.88;;;;;;;;;;5032847;28;20025;-61
2021/06/29 09:50:53;;;;;;;65.53;59.63;;;;;;;;;;5032816;28;20052;-59
2021/06/29 09:53:29;;;;;;;63.00;57.72;;;;;;;;;;5032868;28;20661;-60
2021/06/29 09:55:58;;;;;;;60.33;55.10;;;;;;;;;;5032375;28;20053;-60
2021/06/29 09:58:26;;;;;;;61.83;56.50;;;;;;;;;;5032671;28;20029;-60
2021/06/29 10:00:55;;;;;;;63.25;57.70;;;;;;;;;;5031816;28;20423;-59
2021/06/29 10:03:27;;;;;;;72.65;66.75;;;;;;;;;;5032609;28;20486;-59
2021/06/29 10:05:58;;;;;;;83.47;77.15;;;;;;;;;;5032616;28;20386;-60
2021/06/29 10:08:26;;;;;;;61.30;55.70;;;;;;;;;;5032722;28;20017;-59
2021/06/29 10:11:11;;;;;;;62.80;57.25;;;;;;;;;;5032886;28;20025;-59
2021/06/29 10:13:41;;;;;;;63.40;57.72;;;;;;;;;;5032733;28;20029;-60
2021/06/29 10:16:08;;;;;;;57.42;52.13;;;;;;;;;;5032739;28;20394;-60
2021/06/29 10:18:39;;;;;;;55.55;50.40;;;;;;;;;;5032480;28;20026;-61
2021/06/29 10:21:23;;;;;;;57.60;52.60;;;;;;;;;;5032318;28;20100;-61
2021/06/29 10:23:52;;;;;;;59.10;53.90;;;;;;;;;;5032573;28;20433;-60
2021/06/29 10:26:19;;;;;;;57.65;52.97;;;;;;;;;;5032522;28;20024;-60
2021/06/29 10:28:47;;;;;;;58.33;53.53;;;;;;;;;;5032766;28;20029;-59
2021/06/29 10:31:19;;;;;;;54.67;50.10;;;;;;;;;;5032323;28;20025;-60
2021/06/29 10:33:47;;;;;;;58.50;53.65;;;;;;;;;;5032684;28;20022;-59
2021/06/29 10:36:15;;;;;;;57.38;52.78;;;;;;;;;;5032558;28;20142;-60
2021/06/29 10:38:42;;;;;;;59.78;54.92;;;;;;;;;;5032345;28;20105;-61
2021/06/29 10:41:10;;;;;;;72.65;66.90;;;;;;;;;;5032403;28;20025;-61
2021/06/29 10:43:38;;;;;;;65.10;59.72;;;;;;;;;;5032276;28;20112;-60
2021/06/29 10:46:05;;;;;;;66.55;61.00;;;;;;;;;;5032393;28;20018;-61
2021/06/29 10:48:32;;;;;;;62.75;57.67;;;;;;;;;;5032440;28;20049;-61
2021/06/29 10:51:03;;;;;;;63.83;58.67;;;;;;;;;;5032216;28;20037;-61
2021/06/29 11:06:02;;;;;;;88.00;81.97;;;;;;;;;;5049927;27;20974;-66
2021/06/29 11:08:45;;;;;;;119.45;112.22;;;;;;;;;;5050061;28;20539;-66
2021/06/29 11:11:13;;;;;;;78.70;72.88;;;;;;;;;;5049923;28;20037;-65
2021/06/29 11:13:47;;;;;;;76.05;70.25;;;;;;;;;;5050019;28;20029;-66
2021/06/29 11:16:15;;;;;;;74.70;69.50;;;;;;;;;;5050123;28;20485;-65
2021/06/29 11:18:44;;;;;;;79.43;73.65;;;;;;;;;;5049870;28;20577;-66
2021/06/29 11:21:21;;;;;;;73.50;67.75;;;;;;;;;;5049858;28;20029;-66
2021/06/29 11:23:48;;;;;;;85.78;79.75;;;;;;;;;;5049787;28;20032;-66
2021/06/29 11:26:15;;;;;;;80.03;74.55;;;;;;;;;;5049637;28;20102;-66
2021/06/29 11:28:44;;;;;;;89.70;83.55;;;;;;;;;;5049752;28;20445;-66
2021/06/29 11:31:11;;;;;;;88.00;81.65;;;;;;;;;;5049745;28;20017;-67
2021/06/29 11:33:42;;;;;;;83.95;78.00;;;;;;;;;;5049547;28;20022;-67
2021/06/29 11:36:29;;;;;;;70.90;65.28;;;;;;;;;;5048257;28;20033;-66
2021/06/29 11:38:57;;;;;;;74.72;68.72;;;;;;;;;;5049394;28;20482;-67
2021/06/29 11:41:27;;;;;;;78.03;72.32;;;;;;;;;;5049507;28;20123;-66
2021/06/29 11:43:55;;;;;;;79.28;73.55;;;;;;;;;;5049218;28;20025;-66
2021/06/29 11:46:40;;;;;;;115.90;108.05;;;;;;;;;;5049279;28;20543;-67
2021/06/29 11:49:07;;;;;;;120.93;112.75;;;;;;;;;;5049222;28;20017;-67
2021/06/29 11:51:53;;;;;;;121.13;112.93;;;;;;;;;;5049104;28;20385;-65
2021/06/29 11:54:32;;;;;;;95.15;88.47;;;;;;;;;;5049246;28;20021;-65
2021/06/29 11:57:01;;;;;;;70.93;65.50;;;;;;;;;;5049161;28;20083;-65
2021/06/29 11:59:30;;;;;;;67.78;62.53;;;;;;;;;;5049192;28;20049;-65
2021/06/29 12:02:07;;;;;;;71.68;66.07;;;;;;;;;;5049102;28;20100;-64
2021/06/29 12:04:34;;;;;;;66.53;61.08;;;;;;;;;;5048476;28;20524;-64
2021/06/29 12:07:08;;;;;;;68.93;62.72;;;;;;;;;;5035265;28;20025;-66
2021/06/29 12:09:37;;;;;;;61.40;56.17;;;;;;;;;;5034485;28;20030;-66
2021/06/29 12:12:20;;;;;;;74.90;69.07;;;;;;;;;;5036407;28;20022;-66
2021/06/29 12:14:48;;;;;;;71.53;65.75;;;;;;;;;;5034737;28;20044;-66
2021/06/29 12:17:15;;;;;;;72.18;66.40;;;;;;;;;;5035588;28;20018;-65
2021/06/29 12:19:42;;;;;;;72.28;66.40;;;;;;;;;;5035694;28;20064;-67
2021/06/29 12:22:09;;;;;;;69.25;63.63;;;;;;;;;;5035473;28;20032;-65
2021/06/29 12:24:37;;;;;;;65.50;60.28;;;;;;;;;;5035447;28;20274;-66
2021/06/29 12:27:17;;;;;;;69.78;64.57;;;;;;;;;;5035408;28;20470;-65
2021/06/29 12:29:44;;;;;;;70.47;64.80;;;;;;;;;;5034035;28;20018;-65
2021/06/29 12:32:15;;;;;;;75.57;69.75;;;;;;;;;;5035213;28;20017;-65
2021/06/29 12:34:42;;;;;;;75.82;69.00;;;;;;;;;;5035286;28;20489;-66
2021/06/29 12:37:10;;;;;;;78.88;71.78;;;;;;;;;;5035402;28;20026;-66
2021/06/29 12:39:37;;;;;;;78.07;70.97;;;;;;;;;;5035076;28;20044;-65
2021/06/29 12:42:15;;;;;;;75.13;68.57;;;;;;;;;;5035211;28;20492;-65
2021/06/29 12:44:42;;;;;;;78.30;71.00;;;;;;;;;;5035078;28;20053;-65
2021/06/29 12:47:13;;;;;;;79.55;72.20;;;;;;;;;;5035438;28;20022;-65
2021/06/29 12:49:41;;;;;;;;;;;;;;;;;;5035605;28;20025;-65
2021/06/29 12:52:14;;;;;;;79.18;71.90;;;;;;;;;;5035078;28;20001;-66
2021/06/29 12:54:47;;;;;;;83.47;76.13;;;;;;;;;;5034897;28;20117;-66
2021/06/29 12:57:14;;;;;;;77.57;70.72;;;;;;;;;;5035209;28;20032;-65
2021/06/29 12:59:47;;;;;;;76.45;68.97;;;;;;;;;;5035241;28;20056;-65
2021/06/29 13:02:18;;;;;;;77.60;69.90;;;;;;;;;;5034916;28;20026;-66
2021/06/29 13:04:46;;;;;;;;;;;;;;;;;;5035294;28;20524;-65
2021/06/29 13:07:15;;;;;;;74.65;67.72;;;;;;;;;;5034690;28;19905;-65
2021/06/29 13:09:43;;;;;;;77.28;70.18;;;;;;;;;;5033515;28;20083;-65
2021/06/29 13:12:15;;;;;;;75.63;68.65;;;;;;;;;;5034796;28;20021;-66
2021/06/29 13:14:59;;;;;;;78.13;71.10;;;;;;;;;;5034621;28;20048;-65
2021/06/29 13:17:26;;;;;;;73.18;66.10;;;;;;;;;;5033763;28;20097;-65
2021/06/29 13:20:10;;;;;;;77.22;70.00;;;;;;;;;;5033367;28;20120;-65
2021/06/29 13:22:58;;;;;;;88.10;80.78;;;;;;;;;;5034536;28;20026;-65
2021/06/29 13:25:26;;;;;;;76.15;69.32;;;;;;;;;;5034382;28;20032;-65
2021/06/29 13:27:53;;;;;;;76.38;69.50;;;;;;;;;;5034380;28;20013;-67
2021/06/29 13:30:20;;;;;;;75.93;68.65;;;;;;;;;;5034438;28;20101;-66
2021/06/29 13:32:49;;;;;;;84.28;77.03;;;;;;;;;;5034491;28;20466;-65
2021/06/29 13:35:21;;;;;;;81.38;74.20;;;;;;;;;;5034375;28;20033;-66
2021/06/29 13:37:50;;;;;;;84.88;77.50;;;;;;;;;;5034217;28;20026;-66
2021/06/29 13:40:23;;;;;;;77.47;70.63;;;;;;;;;;5034148;28;20097;-65
2021/06/29 13:42:52;;;;;;;72.70;65.75;;;;;;;;;;5033991;28;20406;-65
2021/06/29 13:45:19;;;;;;;72.25;65.85;;;;;;;;;;5033922;28;20033;-65
2021/06/29 13:47:54;;;;;;;71.85;65.28;;;;;;;;;;5033919;28;20032;-65
2021/06/29 13:50:22;;;;;;;85.28;77.78;;;;;;;;;;5033917;28;20026;-65
2021/06/29 13:52:57;;;;;;;75.68;68.63;;;;;;;;;;5033804;28;20375;-65
2021/06/29 13:55:24;;;;;;;79.47;72.13;;;;;;;;;;5033779;28;20493;-65
2021/06/29 13:57:52;;;;;;;76.43;69.63;;;;;;;;;;5033826;28;20409;-65
2021/06/29 14:00:26;;;;;;;80.05;73.00;;;;;;;;;;5033830;28;20482;-65
2021/06/29 14:03:04;;;;;;;79.93;73.18;;;;;;;;;;5033677;28;20098;-65
2021/06/29 14:05:32;;;;;;;82.18;75.18;;;;;;;;;;5033413;28;20049;-65
2021/06/29 14:08:11;;;;;;;80.70;73.47;;;;;;;;;;5033614;28;20382;-64
2021/06/29 14:10:38;;;;;;;79.63;72.90;;;;;;;;;;5033559;28;20082;-64
2021/06/29 14:13:06;;;;;;;79.65;72.97;;;;;;;;;;5033504;28;20024;-65
2021/06/29 14:15:33;;;;;;;81.38;74.47;;;;;;;;;;5033436;28;20029;-65
2021/06/29 14:18:00;;;;;;;82.47;75.45;;;;;;;;;;5033385;28;20013;-64
2021/06/29 14:20:27;;;;;;;83.95;76.72;;;;;;;;;;5033602;28;20025;-65
2021/06/29 14:22:55;;;;;;;77.65;70.97;;;;;;;;;;5033446;28;20029;-64
2021/06/29 14:25:22;;;;;;;77.97;71.57;;;;;;;;;;5033241;28;20040;-66
2021/06/29 14:27:52;;;;;;;81.53;75.03;;;;;;;;;;5033313;28;20445;-65
2021/06/29 14:30:19;;;;;;;81.15;74.60;;;;;;;;;;5033225;28;20100;-65
2021/06/29 14:32:47;;;;;;;83.25;76.65;;;;;;;;;;5033174;28;20022;-65
2021/06/29 14:35:14;;;;;;;77.07;70.25;;;;;;;;;;5033246;28;20029;-65
2021/06/29 14:37:42;;;;;;;89.07;81.68;;;;;;;;;;5032049;28;20030;-65
2021/06/29 14:40:10;;;;;;;88.18;81.18;;;;;;;;;;5033168;28;20024;-65
2021/06/29 14:42:37;;;;;;;86.72;79.55;;;;;;;;;;5033112;28;20441;-65